Time;durP1;ratioP1;P1;durP2;ratioP2;P2;SDS_P1;SDS_P2;PMS_P1;PMS_P2;Temp;Humidity;BMP_temperature;BMP_pressure;BME280_temperature;BME280_humidity;BME280_pressure;Samples;Min_cycle;Max_cycle;Signal;HPM_P1;HPM_P2
2022/07/28 00:00:39;;;;;;;;;9.00;9.00;;;;;26.47;35.57;98888.81;6283680;27;96958;-58
2022/07/28 00:03:45;;;;;;;;;11.00;11.00;;;;;26.40;35.68;98887.66;6273320;27;97486;-55
2022/07/28 00:06:48;;;;;;;;;11.00;11.00;;;;;26.37;35.75;98891.09;6273049;27;96983;-58
2022/07/28 00:09:52;;;;;;;;;9.00;9.00;;;;;26.35;36.14;98896.13;6275744;27;97035;-58
2022/07/28 00:13:02;;;;;;;;;9.50;9.50;;;;;26.33;35.88;98890.94;6264660;27;97459;-56
2022/07/28 00:16:08;;;;;;;;;10.00;9.60;;;;;26.32;36.04;98894.00;6273123;27;97437;-55
2022/07/28 00:19:13;;;;;;;;;11.00;11.00;;;;;26.30;36.45;98897.91;6276477;27;97529;-57
2022/07/28 00:22:17;;;;;;;;;9.50;9.00;;;;;26.31;36.16;98901.47;6268703;27;97407;-55
2022/07/28 00:25:20;;;;;;;;;9.00;9.00;;;;;26.30;36.14;98897.91;6270371;27;96878;-56
2022/07/28 00:28:24;;;;;;;;;8.00;8.00;;;;;26.29;36.34;98887.19;6265815;27;96873;-57
2022/07/28 00:31:27;;;;;;;;;8.00;8.00;;;;;26.28;36.67;98893.84;6270051;27;97239;-56
2022/07/28 00:34:32;;;;;;;;;12.00;11.60;;;;;26.27;36.74;98895.00;6290151;27;97034;-56
2022/07/28 00:37:39;;;;;;;;;11.00;10.00;;;;;26.23;37.12;98900.34;6276277;27;97270;-56
2022/07/28 00:44:08;;;;;;;;;12.40;12.00;;;;;26.23;37.68;98907.84;6274084;27;97566;-56
2022/07/28 00:47:12;;;;;;;;;7.80;7.80;;;;;26.20;37.72;98913.97;6266576;27;97056;-57
2022/07/28 00:50:18;;;;;;;;;7.40;7.40;;;;;26.15;38.01;98917.69;6284396;27;96853;-58
2022/07/28 00:53:22;;;;;;;;;11.00;11.00;;;;;26.11;38.21;98913.13;6285972;27;97640;-56
2022/07/28 00:56:26;;;;;;;;;8.40;8.00;;;;;26.09;38.03;98910.72;6273907;27;97282;-56
2022/07/28 00:59:31;;;;;;;;;8.80;7.80;;;;;26.04;38.32;98912.81;6281585;27;96842;-56
2022/07/28 01:02:36;;;;;;;;;10.20;10.00;;;;;26.03;38.18;98908.41;6263411;27;97536;-55
2022/07/28 01:05:50;;;;;;;;;11.00;11.00;;;;;26.01;37.76;98905.97;6263907;27;97109;-56
2022/07/28 01:09:00;;;;;;;;;8.00;7.00;;;;;25.98;37.33;98912.16;6263232;27;96865;-57
2022/07/28 01:12:14;;;;;;;;;9.00;9.00;;;;;25.96;36.78;98917.16;6272040;27;96957;-56
2022/07/28 01:15:25;;;;;;;;;6.40;6.00;;;;;25.93;36.45;98915.06;6263644;27;97491;-58
2022/07/28 01:18:33;;;;;;;;;9.40;9.40;;;;;25.90;36.38;98924.00;6263708;27;97124;-57
2022/07/28 01:21:42;;;;;;;;;10.00;10.00;;;;;25.86;36.17;98928.53;6269884;27;97598;-57
2022/07/28 01:24:56;;;;;;;;;7.20;7.00;;;;;25.84;36.21;98936.34;6262391;27;96803;-58
2022/07/28 01:28:15;;;;;;;;;8.67;8.00;;;;;25.83;36.10;98926.41;6267210;27;97581;-56
2022/07/28 01:31:25;;;;;;;;;13.00;13.00;;;;;25.79;36.45;98934.53;6264604;27;97161;-59
2022/07/28 01:34:33;;;;;;;;;13.00;13.00;;;;;25.69;36.36;98920.19;6278581;27;97142;-59
2022/07/28 01:37:43;;;;;;;;;8.00;8.00;;;;;25.78;36.84;98929.31;6275349;27;97509;-57
2022/07/28 01:40:47;;;;;;;;;10.00;10.00;;;;;25.75;36.79;98928.03;6279857;27;96806;-59
2022/07/28 01:43:57;;;;;;;;;10.00;9.40;;;;;25.75;36.75;98918.94;6244245;27;97096;-59
2022/07/28 01:47:06;;;;;;;;;9.00;9.00;;;;;25.73;36.33;98918.41;6275031;27;96856;-55
2022/07/28 01:50:12;;;;;;;;;6.80;6.80;;;;;25.72;36.99;98917.59;6271657;27;97032;-58
2022/07/28 01:53:17;;;;;;;;;8.80;8.80;;;;;25.70;36.66;98906.09;6263624;27;96693;-57
2022/07/28 01:56:22;;;;;;;;;8.20;7.80;;;;;25.69;36.55;98909.16;6265374;27;97013;-58
2022/07/28 01:59:27;;;;;;;;;8.00;8.00;;;;;25.65;36.55;98909.00;6288104;27;97021;-56
2022/07/28 02:02:39;;;;;;;;;8.00;8.00;;;;;25.40;36.51;98880.13;6277913;27;96362;-55
2022/07/28 02:05:44;;;;;;;;;9.00;9.00;;;;;25.56;36.67;98910.09;6269354;27;97412;-59
2022/07/28 02:08:49;;;;;;;;;7.00;7.00;;;;;25.52;36.77;98912.63;6276355;27;97258;-56
2022/07/28 02:11:55;;;;;;;;;10.40;10.40;;;;;25.43;37.14;98900.75;6272941;27;97417;-58
2022/07/28 02:14:59;;;;;;;;;10.25;9.25;;;;;25.44;37.26;98921.69;6284652;27;96549;-58
2022/07/28 02:18:09;;;;;;;;;8.20;8.20;;;;;25.43;37.39;98920.06;6281376;27;96881;-58
2022/07/28 02:21:13;;;;;;;;;8.60;8.60;;;;;25.48;37.32;98921.88;6278734;27;96742;-59
2022/07/28 02:24:19;;;;;;;;;9.50;8.75;;;;;25.30;37.43;98893.38;6288214;27;96616;-57
2022/07/28 02:27:33;;;;;;;;;9.20;9.00;;;;;25.40;37.62;98915.19;6287861;27;97386;-55
2022/07/28 02:30:41;;;;;;;;;8.00;8.00;;;;;25.52;37.74;98931.94;6265349;27;96953;-57
2022/07/28 02:33:48;;;;;;;;;8.00;8.00;;;;;25.52;37.70;98931.13;6264774;27;97074;-57
2022/07/28 02:37:03;;;;;;;;;8.80;8.80;;;;;25.51;37.68;98937.81;6269135;27;96847;-57
2022/07/28 02:40:12;;;;;;;;;10.00;9.00;;;;;25.50;37.24;98930.66;6283958;27;97783;-56
2022/07/28 02:43:22;;;;;;;;;12.40;11.40;;;;;25.47;36.75;98940.38;6272117;27;96958;-59
2022/07/28 02:46:27;;;;;;;;;9.60;9.60;;;;;25.42;36.85;98935.81;6266569;27;97408;-59
2022/07/28 02:49:33;;;;;;;;;8.00;7.00;;;;;25.45;36.74;98934.38;6281871;27;97524;-58
2022/07/28 02:52:38;;;;;;;;;13.00;12.40;;;;;25.46;36.97;98938.75;6283209;27;96531;-58
2022/07/28 02:55:43;;;;;;;;;11.80;11.20;;;;;25.46;36.81;98941.53;6282635;27;97510;-56
2022/07/28 02:58:47;;;;;;;;;10.00;10.00;;;;;25.45;37.06;98942.66;6277252;27;96791;-54
2022/07/28 03:01:52;;;;;;;;;13.60;12.60;;;;;25.41;36.89;98947.97;6283027;27;97429;-54
2022/07/28 03:05:00;;;;;;;;;16.00;15.00;;;;;25.40;37.49;98953.84;6287213;27;97549;-55
2022/07/28 03:08:04;;;;;;;;;10.60;10.60;;;;;25.40;36.93;98957.41;6278888;27;97045;-56
2022/07/28 03:11:09;;;;;;;;;14.00;14.00;;;;;25.42;36.93;98973.63;6265853;27;96981;-56
2022/07/28 03:14:12;;;;;;;;;14.33;14.00;;;;;25.41;37.71;98974.78;6275622;27;97484;-56
2022/07/28 03:17:18;;;;;;;;;17.60;17.20;;;;;25.41;37.98;98972.81;6269747;27;96875;-55
2022/07/28 03:20:22;;;;;;;;;13.40;13.00;;;;;24.97;38.00;98901.97;6271497;27;97836;-56
2022/07/28 03:23:32;;;;;;;;;12.50;12.50;;;;;25.42;38.35;98979.16;6278617;27;97170;-56
2022/07/28 03:26:41;;;;;;;;;13.00;12.00;;;;;25.42;38.80;98981.91;6291097;27;96419;-56
2022/07/28 03:29:49;;;;;;;;;14.00;14.00;;;;;25.40;38.56;98985.00;6291071;27;96904;-55
2022/07/28 03:32:55;;;;;;;;;13.00;13.00;;;;;25.37;39.01;98977.34;6286275;27;98299;-56
2022/07/28 03:36:04;;;;;;;;;13.00;11.00;;;;;25.38;38.75;98978.16;6291010;27;97484;-58
2022/07/28 03:39:10;;;;;;;;;9.00;9.00;;;;;25.35;38.52;98976.88;6269700;27;96731;-55
2022/07/28 03:42:17;;;;;;;;;10.40;10.40;;;;;25.35;38.25;98985.16;6278204;27;97230;-56
2022/07/28 03:45:21;;;;;;;;;10.00;10.00;;;;;25.35;38.70;98982.38;6266893;27;96526;-53
2022/07/28 03:48:28;;;;;;;;;9.00;9.00;;;;;25.37;37.90;98982.88;6285480;27;97967;-53
2022/07/28 03:51:33;;;;;;;;;11.25;11.00;;;;;25.37;38.09;98991.13;6273061;27;97140;-58
2022/07/28 03:54:36;;;;;;;;;9.25;9.00;;;;;25.38;37.60;98989.19;6273818;27;97087;-58
2022/07/28 03:57:40;;;;;;;;;12.00;11.20;;;;;25.40;37.55;98993.28;6280116;27;96589;-56
2022/07/28 04:00:43;;;;;;;;;10.00;9.00;;;;;25.40;37.49;98990.53;6285189;27;97440;-56
2022/07/28 04:03:47;;;;;;;;;10.60;10.00;;;;;25.40;37.49;99003.50;6293133;27;98055;-56
2022/07/28 04:06:52;;;;;;;;;9.25;9.25;;;;;25.41;37.21;98999.63;6279836;27;97864;-58
2022/07/28 04:09:55;;;;;;;;;12.00;11.00;;;;;25.45;36.82;99004.19;6286983;27;97379;-58
2022/07/28 04:13:00;;;;;;;;;11.00;11.00;;;;;25.46;36.68;99007.78;6279544;27;97133;-55
2022/07/28 04:16:04;;;;;;;;;13.50;13.50;;;;;25.43;36.97;99000.94;6289671;27;97736;-55
2022/07/28 04:19:07;;;;;;;;;13.80;13.80;;;;;25.41;37.29;99005.94;6277954;27;96860;-54
2022/07/28 04:22:12;;;;;;;;;12.00;12.00;;;;;25.42;37.28;98995.72;6275810;27;96734;-56
2022/07/28 04:25:18;;;;;;;;;16.00;15.75;;;;;25.43;37.52;98994.59;6268584;27;98836;-55
2022/07/28 04:28:21;;;;;;;;;15.40;15.40;;;;;25.43;37.27;98987.13;6282224;27;97458;-56
2022/07/28 04:31:25;;;;;;;;;10.00;9.40;;;;;25.48;37.50;98997.22;6288987;27;97453;-56
2022/07/28 04:34:28;;;;;;;;;18.75;18.50;;;;;25.51;37.90;99006.81;6277050;27;97133;-54
2022/07/28 04:37:33;;;;;;;;;13.60;13.60;;;;;25.55;37.66;99008.66;6268701;27;96619;-58
2022/07/28 04:40:36;;;;;;;;;14.00;13.40;;;;;25.59;38.25;99001.38;6263610;27;97206;-56
2022/07/28 04:43:40;;;;;;;;;11.40;11.40;;;;;25.65;37.89;99011.16;6283680;27;96789;-56
2022/07/28 04:46:43;;;;;;;;;14.00;14.00;;;;;25.70;37.31;99004.69;6287900;27;96831;-57
2022/07/28 04:49:49;;;;;;;;;11.00;10.60;;;;;25.74;37.54;99006.47;6287867;27;97380;-55
2022/07/28 04:52:54;;;;;;;;;20.00;20.00;;;;;25.80;37.15;99007.94;6285764;27;96591;-56
2022/07/28 04:55:57;;;;;;;;;15.00;15.00;;;;;25.84;37.43;99010.91;6263561;27;98593;-57
2022/07/28 04:59:01;;;;;;;;;15.60;15.60;;;;;25.88;37.00;99007.19;6265103;27;96389;-58
2022/07/28 05:02:06;;;;;;;;;19.50;18.50;;;;;25.93;37.06;99016.47;6275798;27;97379;-56
2022/07/28 05:05:10;;;;;;;;;12.00;12.00;;;;;25.98;36.89;99021.84;6274288;27;96889;-56
2022/07/28 05:08:15;;;;;;;;;12.00;11.00;;;;;26.01;37.16;99023.94;6288367;27;97207;-57
2022/07/28 05:11:19;;;;;;;;;13.00;12.80;;;;;26.05;36.18;99027.69;6284257;27;97093;-63
2022/07/28 05:14:22;;;;;;;;;14.40;14.40;;;;;26.05;36.52;99025.75;6282181;27;97220;-55
2022/07/28 05:17:26;;;;;;;;;11.75;11.50;;;;;26.08;36.88;99029.84;6270282;27;97598;-56
2022/07/28 05:20:29;;;;;;;;;11.00;11.00;;;;;26.14;36.42;99026.63;6277498;27;96662;-59
2022/07/28 05:23:34;;;;;;;;;7.40;7.00;;;;;26.21;36.21;99035.28;6263163;27;97546;-57
2022/07/28 05:26:37;;;;;;;;;12.00;12.00;;;;;26.27;36.63;99039.53;6263702;27;97397;-56
2022/07/28 05:29:41;;;;;;;;;13.75;13.00;;;;;26.35;36.22;99046.19;6262955;27;96622;-54
2022/07/28 05:32:49;;;;;;;;;14.20;14.00;;;;;26.39;36.17;99038.09;6274692;27;97798;-58
2022/07/28 05:35:56;;;;;;;;;13.00;12.20;;;;;26.40;36.16;99046.03;6277286;27;96739;-56
2022/07/28 05:39:00;;;;;;;;;13.00;13.00;;;;;26.41;35.88;99055.16;6272726;27;97434;-53
2022/07/28 05:42:04;;;;;;;;;13.40;13.00;;;;;26.43;35.84;99058.44;6273917;27;97460;-55
2022/07/28 05:45:09;;;;;;;;;12.00;11.00;;;;;26.46;35.68;99055.00;6273524;27;97444;-55
2022/07/28 05:48:19;;;;;;;;;15.00;15.00;;;;;26.46;36.34;99055.81;6272290;27;97439;-55
2022/07/28 05:51:23;;;;;;;;;13.50;13.00;;;;;26.47;35.80;99060.22;6272145;27;96925;-58
2022/07/28 05:54:28;;;;;;;;;14.60;13.60;;;;;26.48;35.78;99058.28;6275091;27;97430;-55
2022/07/28 05:57:31;;;;;;;;;13.20;13.00;;;;;26.56;35.97;99051.94;6273032;27;96797;-56
2022/07/28 06:00:35;;;;;;;;;12.80;11.80;;;;;26.62;36.24;99047.91;6274186;27;96521;-56
2022/07/28 06:03:38;;;;;;;;;11.00;10.50;;;;;26.72;36.01;99055.88;6274814;27;97087;-62
2022/07/28 06:06:44;;;;;;;;;12.00;12.00;;;;;26.79;35.53;99058.97;6272280;27;96696;-54
2022/07/28 06:09:49;;;;;;;;;12.50;12.50;;;;;26.92;36.08;99060.81;6274744;27;96622;-54
2022/07/28 06:12:55;;;;;;;;;14.20;14.00;;;;;27.02;35.44;99065.22;6277523;27;96788;-56
2022/07/28 06:15:58;;;;;;;;;13.00;13.00;;;;;27.09;35.40;99074.63;6276539;27;98181;-54
2022/07/28 06:19:02;;;;;;;;;11.00;10.75;;;;;27.19;35.29;99069.91;6279274;27;97187;-58
2022/07/28 06:22:05;;;;;;;;;10.40;10.00;;;;;27.28;35.06;99071.53;6276332;27;97508;-58
2022/07/28 06:25:14;;;;;;;;;10.00;10.00;;;;;27.40;35.00;99077.22;6276009;27;97177;-57
2022/07/28 06:28:18;;;;;;;;;13.00;13.00;;;;;27.57;34.81;99081.94;6277982;27;98129;-58
2022/07/28 06:31:22;;;;;;;;;11.60;11.00;;;;;27.71;35.10;99074.25;6276294;27;97320;-57
2022/07/28 06:34:25;;;;;;;;;13.00;12.25;;;;;27.78;34.96;99070.97;6259002;27;98320;-54
2022/07/28 06:37:28;;;;;;;;;13.50;13.00;;;;;27.86;35.22;99070.13;6275698;27;97368;-56
2022/07/28 06:40:33;;;;;;;;;14.00;14.00;;;;;27.98;34.24;99073.03;6275999;27;96752;-57
2022/07/28 06:43:36;;;;;;;;;16.00;15.00;;;;;28.06;34.49;99071.38;6278255;27;96783;-55
2022/07/28 06:46:41;;;;;;;;;12.20;11.20;;;;;28.15;34.72;99077.75;6273170;27;97296;-56
2022/07/28 06:49:45;;;;;;;;;12.60;12.00;;;;;28.29;34.25;99075.56;6258590;27;97884;-59
2022/07/28 06:52:48;;;;;;;;;12.80;12.20;;;;;28.32;34.64;99072.91;6268401;27;97028;-55
2022/07/28 06:55:53;;;;;;;;;13.25;11.25;;;;;28.52;32.65;99071.34;6266137;27;97417;-58
2022/07/28 06:58:56;;;;;;;;;14.00;13.00;;;;;28.64;32.83;99070.59;6266261;27;96465;-54
2022/07/28 07:02:01;;;;;;;;;10.60;10.00;;;;;28.76;33.49;99085.41;6265980;27;97533;-58
2022/07/28 07:05:05;;;;;;;;;6.75;6.00;;;;;28.99;33.12;99085.06;6267239;27;97490;-59
2022/07/28 07:08:08;;;;;;;;;8.00;7.25;;;;;29.17;32.66;99081.03;6264394;27;97534;-57
2022/07/28 07:11:13;;;;;;;;;8.60;8.60;;;;;29.33;32.34;99078.44;6264884;27;96838;-57
2022/07/28 07:14:17;;;;;;;;;7.25;7.25;;;;;29.56;32.82;99086.09;6264967;27;96600;-56
2022/07/28 07:17:21;;;;;;;;;8.00;8.00;;;;;29.81;31.79;99078.59;6265645;27;96431;-56
2022/07/28 07:20:24;;;;;;;;;8.00;7.40;;;;;30.03;31.75;99078.22;6280607;27;98065;-59
2022/07/28 07:23:27;;;;;;;;;8.00;8.00;;;;;30.27;30.68;99083.00;6262536;27;97486;-58
2022/07/28 07:26:32;;;;;;;;;7.20;7.20;;;;;30.40;29.95;99078.22;6263767;27;97041;-56
2022/07/28 07:29:36;;;;;;;;;6.00;6.00;;;;;30.53;30.96;99079.91;6272814;27;97144;-58
2022/07/28 07:32:43;;;;;;;;;6.00;5.80;;;;;30.70;30.85;99071.28;6289481;27;97873;-55
2022/07/28 07:35:47;;;;;;;;;8.00;8.00;;;;;30.85;30.10;99067.78;6290384;27;97170;-57
2022/07/28 07:38:51;;;;;;;;;6.00;6.00;;;;;31.00;30.38;99069.03;6261898;27;96725;-58
2022/07/28 07:41:56;;;;;;;;;8.25;8.00;;;;;31.09;29.61;99071.69;6267641;27;97464;-58
2022/07/28 07:45:00;;;;;;;;;8.40;7.40;;;;;31.11;30.38;99067.41;6265091;27;97429;-60
2022/07/28 07:48:04;;;;;;;;;9.00;9.00;;;;;31.15;30.57;99064.72;6273171;27;97381;-58
2022/07/28 07:51:08;;;;;;;;;9.40;9.00;;;;;31.25;30.53;99065.03;6271230;27;97029;-56
2022/07/28 07:54:17;;;;;;;;;10.00;9.40;;;;;31.35;30.23;99067.31;6265375;27;97066;-58
2022/07/28 07:57:23;;;;;;;;;8.00;7.40;;;;;31.45;30.03;99066.00;6265092;27;96397;-57
2022/07/28 08:00:26;;;;;;;;;8.00;8.00;;;;;31.55;29.61;99079.41;6280564;27;96940;-59
2022/07/28 08:03:31;;;;;;;;;5.00;5.00;;;;;31.63;29.90;99070.09;6283621;27;97037;-58
2022/07/28 08:06:34;;;;;;;;;9.00;8.00;;;;;31.76;29.74;99062.50;6280667;27;96722;-58
2022/07/28 08:09:38;;;;;;;;;8.00;8.00;;;;;31.81;29.74;99071.38;6274275;27;97462;-55
2022/07/28 08:12:43;;;;;;;;;11.00;10.00;;;;;31.95;29.89;99067.38;6286261;27;96548;-61
2022/07/28 08:15:47;;;;;;;;;8.00;7.80;;;;;31.98;28.47;99073.03;6279698;27;98106;-58
2022/07/28 08:18:50;;;;;;;;;9.00;9.00;;;;;32.03;29.13;99075.56;6279552;27;97066;-57
2022/07/28 08:21:55;;;;;;;;;9.00;8.00;;;;;32.09;29.03;99067.72;6271171;27;96934;-60
2022/07/28 08:24:59;;;;;;;;;9.00;8.00;;;;;32.01;28.36;99077.09;6274355;27;97769;-58
2022/07/28 08:28:04;;;;;;;;;10.00;10.00;;;;;31.95;28.22;99067.38;6274809;27;97387;-62
2022/07/28 08:31:08;;;;;;;;;6.20;6.20;;;;;32.05;29.58;99069.63;6274610;27;97448;-55
2022/07/28 08:34:11;;;;;;;;;5.00;5.00;;;;;32.15;28.90;99075.50;6272080;27;97641;-58
2022/07/28 08:37:37;;;;;;;;;6.00;6.00;;;;;32.25;28.59;99074.16;6273478;27;97347;-59
2022/07/28 08:40:42;;;;;;;;;8.00;8.00;;;;;32.38;28.19;99072.06;6272050;27;97406;-59
2022/07/28 08:43:49;;;;;;;;;5.00;5.00;;;;;32.46;27.76;99069.06;6270664;27;97074;-58
2022/07/28 08:46:53;;;;;;;;;6.00;6.00;;;;;32.59;28.24;99072.59;6256339;27;98616;-59
2022/07/28 08:49:58;;;;;;;;;7.00;7.00;;;;;32.62;27.99;99043.94;6275135;27;96987;-58
2022/07/28 08:53:02;;;;;;;;;8.00;8.00;;;;;32.91;27.54;99067.75;6275740;27;97552;-61
2022/07/28 08:56:07;;;;;;;;;10.20;10.20;;;;;32.86;26.58;99054.06;6276117;27;96669;-58
2022/07/28 08:59:13;;;;;;;;;7.60;7.60;;;;;32.93;26.59;99063.44;6274731;27;96919;-60
2022/07/28 09:02:17;;;;;;;;;11.00;11.00;;;;;32.95;27.48;99066.66;6259586;27;97599;-56
2022/07/28 09:05:22;;;;;;;;;9.00;9.00;;;;;33.00;27.37;99063.56;6268656;27;96514;-58
2022/07/28 09:08:26;;;;;;;;;7.80;6.00;;;;;33.06;27.01;99066.88;6271932;27;96850;-58
2022/07/28 09:11:31;;;;;;;;;9.00;9.00;;;;;33.06;26.30;99055.72;6288922;27;96499;-60
2022/07/28 09:14:36;;;;;;;;;8.00;6.60;;;;;33.02;27.03;99055.63;6289060;27;97439;-56
2022/07/28 09:17:41;;;;;;;;;6.00;6.00;;;;;33.10;27.28;99059.38;6278070;27;97465;-61
2022/07/28 09:20:45;;;;;;;;;6.50;6.50;;;;;33.10;26.27;99056.59;6278342;27;97602;-61
2022/07/28 09:23:49;;;;;;;;;6.75;5.75;;;;;33.16;27.63;99057.13;6272695;27;97226;-65
2022/07/28 09:27:00;;;;;;;;;9.00;8.00;;;;;33.27;26.92;99047.00;6274446;27;96666;-56
2022/07/28 09:30:07;;;;;;;;;9.00;9.00;;;;;33.23;26.31;99052.53;6273570;27;97459;-59
2022/07/28 09:33:16;;;;;;;;;11.00;10.00;;;;;33.31;26.30;99064.66;6271252;27;96671;-58
2022/07/28 09:36:41;;;;;;;;;10.00;10.00;;;;;33.22;26.62;99050.09;6268842;27;96761;-60
2022/07/28 09:39:45;;;;;;;;;9.20;9.00;;;;;33.32;26.16;99055.91;6288023;27;97431;-57
2022/07/28 09:42:49;;;;;;;;;7.20;7.00;;;;;33.37;26.70;99057.59;6287574;27;97555;-58
2022/07/28 09:46:04;;;;;;;;;10.00;10.00;;;;;33.45;26.32;99067.72;6287937;27;97398;-57
2022/07/28 09:49:07;;;;;;;;;8.00;7.75;;;;;33.48;25.82;99066.97;6263002;27;96481;-67
2022/07/28 09:52:11;;;;;;;;;11.50;10.50;;;;;33.42;25.55;99068.47;6262777;27;96381;-57
2022/07/28 09:55:15;;;;;;;;;8.00;7.00;;;;;33.30;25.84;99063.81;6263095;27;96944;-62
2022/07/28 09:58:18;;;;;;;;;11.00;11.00;;;;;33.17;26.45;99042.00;6264105;27;96514;-63
2022/07/28 10:01:26;;;;;;;;;11.00;11.00;;;;;33.35;27.15;99065.53;6262935;27;96696;-58
2022/07/28 10:04:40;;;;;;;;;15.00;14.60;;;;;33.27;25.99;99039.44;6263485;27;97022;-59
2022/07/28 10:07:48;;;;;;;;;9.60;9.60;;;;;33.41;26.17;99064.06;6263058;27;96752;-56
2022/07/28 10:10:59;;;;;;;;;10.00;9.00;;;;;33.55;26.62;99066.31;6276700;27;96968;-58
2022/07/28 10:14:04;;;;;;;;;10.40;10.40;;;;;33.57;25.74;99044.41;6288230;27;96408;-58
2022/07/28 10:17:09;;;;;;;;;8.00;8.00;;;;;33.81;25.83;99070.06;6287301;27;97127;-59
2022/07/28 10:20:13;;;;;;;;;9.00;9.00;;;;;33.91;25.59;99071.44;6288289;27;96895;-56
2022/07/28 10:23:18;;;;;;;;;7.50;7.50;;;;;34.07;25.68;99069.31;6287855;27;98098;-58
2022/07/28 10:26:27;;;;;;;;;7.00;7.00;;;;;34.23;25.08;99055.22;6287664;27;97553;-58
2022/07/28 10:29:31;;;;;;;;;10.00;10.00;;;;;34.27;25.40;99056.88;6263073;27;97409;-56
2022/07/28 10:32:41;;;;;;;;;10.60;10.60;;;;;34.35;26.09;99049.44;6261903;27;98219;-62
2022/07/28 10:35:48;;;;;;;;;11.00;10.00;;;;;34.50;25.96;99053.25;6262039;27;96277;-59
2022/07/28 10:39:06;;;;;;;;;16.40;16.40;;;;;34.70;25.25;99063.97;6274273;27;97414;-58
2022/07/28 10:42:11;;;;;;;;;8.75;8.00;;;;;34.77;25.32;99055.69;6269638;27;96944;-56
2022/07/28 10:45:16;;;;;;;;;13.50;13.00;;;;;34.86;25.99;99051.78;6266163;27;98648;-57
2022/07/28 10:48:21;;;;;;;;;12.00;12.00;;;;;34.81;24.42;99055.72;6274000;27;97460;-57
2022/07/28 10:51:27;;;;;;;;;9.60;8.60;;;;;34.71;24.03;99056.38;6272544;27;96676;-64
2022/07/28 10:54:38;;;;;;;;;12.75;12.75;;;;;34.59;24.44;99054.59;6272309;27;96682;-58
2022/07/28 10:57:54;;;;;;;;;8.00;8.00;;;;;34.60;25.04;99045.00;6275168;27;97562;-56
2022/07/28 11:01:07;;;;;;;;;9.20;9.20;;;;;34.74;24.62;99050.84;6272913;27;97473;-59
2022/07/28 11:05:00;;;;;;;;;9.60;9.40;;;;;34.78;23.87;99040.50;6268439;27;96681;-60
2022/07/28 11:08:07;;;;;;;;;10.00;10.00;;;;;34.87;24.10;99029.00;6271787;27;96798;-59
2022/07/28 11:11:10;;;;;;;;;7.50;7.00;;;;;34.93;24.97;99032.28;6274987;27;97336;-60
2022/07/28 11:14:34;;;;;;;;;8.50;8.50;;;;;34.94;25.15;99042.31;6270203;27;96811;-56
2022/07/28 11:17:56;;;;;;;;;7.00;7.00;;;;;35.02;24.31;99028.00;6278042;27;97195;-57
2022/07/28 11:21:10;;;;;;;;;9.00;9.00;;;;;35.18;24.71;99028.66;6277309;27;97037;-61
2022/07/28 11:24:18;;;;;;;;;11.20;10.20;;;;;35.33;24.61;99026.03;6274134;27;96714;-58
2022/07/28 11:27:59;;;;;;;;;7.00;6.80;;;;;35.48;23.24;99019.38;6273350;27;96826;-61
2022/07/28 11:31:03;;;;;;;;;7.75;7.75;;;;;35.50;23.79;99022.59;6264731;27;97045;-60
2022/07/28 11:34:07;;;;;;;;;11.50;10.00;;;;;35.43;23.29;99022.53;6253992;27;97823;-59
2022/07/28 11:37:12;;;;;;;;;8.00;8.00;;;;;35.32;23.15;99010.38;6280489;27;97314;-63
2022/07/28 11:40:31;;;;;;;;;8.00;7.00;;;;;35.23;23.72;99010.69;6274565;27;96903;-57
2022/07/28 11:43:37;;;;;;;;;8.60;8.00;;;;;35.17;22.77;99013.03;6276046;27;97033;-59
2022/07/28 11:46:42;;;;;;;;;10.00;10.00;;;;;35.19;24.20;99007.00;6271920;27;97529;-56
2022/07/28 11:50:06;;;;;;;;;8.00;8.00;;;;;35.27;23.71;99007.91;6279207;27;96706;-60
2022/07/28 11:53:11;;;;;;;;;9.20;9.20;;;;;35.28;23.72;99001.13;6277353;27;97377;-59
2022/07/28 11:56:17;;;;;;;;;9.00;8.60;;;;;35.34;23.71;99003.19;6274371;27;97370;-56
2022/07/28 11:59:21;;;;;;;;;9.20;8.80;;;;;35.46;22.99;99004.94;6265764;27;97543;-58
2022/07/28 12:02:40;;;;;;;;;9.40;9.00;;;;;35.45;22.45;98997.69;6264181;27;98683;-64
2022/07/28 12:05:56;;;;;;;;;10.25;10.25;;;;;35.48;22.86;98996.94;6264125;27;96537;-57
2022/07/28 12:09:04;;;;;;;;;10.00;10.00;;;;;35.45;22.71;98994.91;6264634;27;97795;-57
2022/07/28 12:12:08;;;;;;;;;8.00;7.40;;;;;35.56;22.80;98998.63;6270794;27;97633;-55
2022/07/28 12:15:15;;;;;;;;;10.40;10.40;;;;;35.43;23.24;98998.06;6279106;27;97308;-63
2022/07/28 12:18:18;;;;;;;;;11.40;11.40;;;;;35.22;23.10;98958.63;6272499;27;97456;-59
2022/07/28 12:21:35;;;;;;;;;9.00;8.00;;;;;35.28;22.64;98992.72;6280717;27;97768;-55
2022/07/28 12:24:57;;;;;;;;;7.20;6.60;;;;;35.25;22.95;98987.88;6270972;27;97023;-57
2022/07/28 12:28:13;;;;;;;;;7.60;7.60;;;;;35.16;23.23;98979.72;6278305;27;96822;-56
2022/07/28 12:31:16;;;;;;;;;6.60;6.60;;;;;35.10;23.95;98989.66;6280631;27;96790;-58
2022/07/28 12:34:20;;;;;;;;;6.25;6.25;;;;;35.01;23.28;98989.97;6282358;27;97025;-57
2022/07/28 12:37:27;;;;;;;;;9.60;9.60;;;;;34.85;23.09;98982.94;6285839;27;96579;-56
2022/07/28 12:40:32;;;;;;;;;9.00;9.00;;;;;34.75;24.10;98978.81;6252615;27;96946;-58
2022/07/28 12:43:36;;;;;;;;;7.00;7.00;;;;;34.78;24.12;98984.47;6269806;27;97412;-58
2022/07/28 12:46:47;;;;;;;;;6.00;6.00;;;;;34.71;23.06;98975.16;6263002;27;97432;-64
2022/07/28 12:50:08;;;;;;;;;7.00;7.00;;;;;34.65;22.93;98977.47;6263381;27;96622;-55
2022/07/28 12:53:13;;;;;;;;;7.00;6.40;;;;;34.70;23.56;98977.16;6272984;27;97199;-58
2022/07/28 12:56:18;;;;;;;;;10.00;10.00;;;;;34.75;23.44;98976.00;6271094;27;96482;-55
2022/07/28 12:59:21;;;;;;;;;9.00;9.00;;;;;34.85;23.84;98971.75;6276542;27;96911;-55
2022/07/28 13:02:35;;;;;;;;;8.00;7.00;;;;;35.00;23.23;98967.94;6282846;27;97546;-57
2022/07/28 13:09:00;;;;;;;;;7.00;7.00;;;;;35.11;24.39;98960.47;6267171;27;97368;-59
2022/07/28 13:12:17;;;;;;;;;10.00;9.50;;;;;35.08;24.16;98970.44;6263081;27;97549;-60
2022/07/28 13:15:20;;;;;;;;;7.75;7.75;;;;;34.97;23.30;98969.50;6262978;27;97458;-57
2022/07/28 13:18:38;;;;;;;;;9.00;9.00;;;;;34.96;24.39;98975.50;6264917;27;97070;-58
2022/07/28 13:21:44;;;;;;;;;10.60;10.00;;;;;34.90;24.49;98969.41;6242535;27;97803;-54
2022/07/28 13:25:02;;;;;;;;;9.00;8.80;;;;;34.91;23.65;98962.63;6243770;27;97804;-58
2022/07/28 13:28:22;;;;;;;;;7.00;7.00;;;;;34.87;24.34;98956.19;6263236;27;96261;-60
2022/07/28 13:31:25;;;;;;;;;8.00;7.40;;;;;34.81;23.64;98963.28;6279352;27;97536;-55
2022/07/28 13:34:28;;;;;;;;;8.00;6.00;;;;;34.66;24.11;98962.28;6279029;27;97760;-57
2022/07/28 13:37:32;;;;;;;;;6.80;5.80;;;;;34.59;24.61;98970.59;6268240;27;97215;-57
2022/07/28 13:40:35;;;;;;;;;8.00;7.00;;;;;34.55;24.63;98954.94;6276667;27;96937;-57
2022/07/28 13:43:44;;;;;;;;;7.00;7.00;;;;;34.66;24.66;98961.47;6268577;27;96771;-56
2022/07/28 13:46:50;;;;;;;;;8.00;7.00;;;;;34.81;24.58;98962.50;6283849;27;97166;-55
2022/07/28 13:49:53;;;;;;;;;10.00;9.67;;;;;34.89;24.14;98967.81;6273951;27;97485;-60
2022/07/28 13:52:58;;;;;;;;;7.25;7.00;;;;;34.96;24.52;98958.69;6266325;27;98063;-57
2022/07/28 13:56:01;;;;;;;;;8.00;8.00;;;;;34.96;23.26;98956.69;6266042;27;96548;-56
2022/07/28 13:59:06;;;;;;;;;9.00;8.00;;;;;34.95;23.10;98963.47;6262917;27;97495;-60
2022/07/28 14:02:12;;;;;;;;;7.00;7.00;;;;;34.95;23.78;98955.06;6262209;27;97186;-57
2022/07/28 14:05:18;;;;;;;;;9.00;9.00;;;;;34.89;23.56;98965.03;6262489;27;97439;-56
2022/07/28 14:08:22;;;;;;;;;8.60;8.60;;;;;34.80;23.90;98958.09;6266542;27;97359;-56
2022/07/28 14:11:27;;;;;;;;;10.00;9.60;;;;;34.74;24.64;98949.22;6279600;27;96702;-52
2022/07/28 14:14:38;;;;;;;;;10.00;9.20;;;;;34.57;23.88;98942.16;6278412;27;97458;-55
2022/07/28 14:17:50;;;;;;;;;10.00;10.00;;;;;34.49;24.09;98950.84;6262020;27;96643;-61
2022/07/28 14:20:53;;;;;;;;;6.60;6.40;;;;;34.42;24.67;98933.94;6271204;27;96748;-58
2022/07/28 14:23:57;;;;;;;;;7.75;7.00;;;;;34.37;24.40;98940.69;6271442;27;97507;-56
2022/07/28 14:27:01;;;;;;;;;8.75;8.75;;;;;34.35;25.22;98943.06;6266579;27;97148;-59
2022/07/28 14:30:07;;;;;;;;;9.00;8.75;;;;;34.30;23.61;98935.00;6264804;27;96765;-62
2022/07/28 14:33:11;;;;;;;;;8.40;8.40;;;;;34.25;23.91;98938.94;6265572;27;97152;-57
2022/07/28 14:36:16;;;;;;;;;9.40;9.00;;;;;34.19;23.66;98929.25;6265266;27;97935;-57